createdAt,value
2018-12-02T00:00:23.522Z,8.80
2018-12-02T00:01:26.948Z,8.80
2018-12-02T00:02:30.298Z,8.80
2018-12-02T00:03:33.624Z,8.80
2018-12-02T00:04:36.993Z,8.80
2018-12-02T00:05:40.322Z,8.80
2018-12-02T00:06:43.675Z,8.80
2018-12-02T00:07:47.038Z,8.80
2018-12-02T00:08:50.403Z,8.80
2018-12-02T00:09:53.730Z,8.70
2018-12-02T00:10:57.110Z,8.70
2018-12-02T00:12:00.436Z,8.70
2018-12-02T00:13:03.762Z,8.70
2018-12-02T00:14:07.106Z,8.70
2018-12-02T00:15:14.641Z,8.80
2018-12-02T00:16:18.004Z,8.70
2018-12-02T00:17:21.361Z,8.70
2018-12-02T00:18:24.717Z,8.70
2018-12-02T00:19:28.038Z,8.70
2018-12-02T00:20:31.397Z,8.70
2018-12-02T00:21:34.765Z,8.70
2018-12-02T00:22:38.632Z,8.70
2018-12-02T00:23:41.988Z,8.70
2018-12-02T00:24:45.297Z,8.70
2018-12-02T00:25:48.626Z,8.70
2018-12-02T00:26:51.950Z,8.70
2018-12-02T00:27:57.538Z,8.70
2018-12-02T00:29:00.881Z,8.70
2018-12-02T00:30:08.655Z,8.70
2018-12-02T00:31:12.010Z,8.70
2018-12-02T00:32:15.396Z,8.70
2018-12-02T00:33:18.734Z,8.70
2018-12-02T00:34:22.062Z,8.70
2018-12-02T00:35:25.405Z,8.70
2018-12-02T00:36:28.722Z,8.60
2018-12-02T00:37:32.065Z,8.70
2018-12-02T00:38:35.377Z,8.70
2018-12-02T00:39:38.682Z,8.70
2018-12-02T00:40:42.027Z,8.70
2018-12-02T00:41:45.367Z,8.70
2018-12-02T00:42:54.977Z,8.70
2018-12-02T00:43:58.299Z,8.70
2018-12-02T00:45:01.614Z,8.60
2018-12-02T00:46:05.121Z,8.60
2018-12-02T00:47:08.449Z,8.60
2018-12-02T00:48:11.826Z,8.70
2018-12-02T00:49:15.199Z,8.70
2018-12-02T00:50:19.045Z,8.70
2018-12-02T00:51:22.414Z,8.70
2018-12-02T00:52:25.760Z,8.60
2018-12-02T00:53:29.140Z,8.60
2018-12-02T00:54:32.492Z,8.60
2018-12-02T00:55:38.497Z,8.60
2018-12-02T00:56:42.913Z,8.60
2018-12-02T00:57:46.587Z,8.60
2018-12-02T00:58:49.979Z,8.60
2018-12-02T00:59:53.315Z,8.60
2018-12-02T01:00:56.643Z,8.60
2018-12-02T01:01:59.955Z,8.60
2018-12-02T01:03:03.345Z,8.60
2018-12-02T01:04:06.661Z,8.70
2018-12-02T01:05:13.211Z,8.60
2018-12-02T01:06:16.586Z,8.70
2018-12-02T01:07:19.889Z,8.70
2018-12-02T01:08:23.273Z,8.70
2018-12-02T01:09:26.598Z,8.70
2018-12-02T01:10:29.922Z,8.70
2018-12-02T01:11:33.246Z,8.70
2018-12-02T01:12:36.585Z,8.60
2018-12-02T01:13:39.932Z,8.70
2018-12-02T01:14:43.259Z,8.70
2018-12-02T01:15:46.638Z,8.70
2018-12-02T01:16:49.996Z,8.70
2018-12-02T01:17:53.354Z,8.70
2018-12-02T01:18:56.671Z,8.70
2018-12-02T01:19:59.990Z,8.70
2018-12-02T01:21:03.347Z,8.70
2018-12-02T01:22:06.723Z,8.70
2018-12-02T01:23:10.052Z,8.70
2018-12-02T01:24:13.376Z,8.70
2018-12-02T01:25:16.702Z,8.70
2018-12-02T01:26:20.054Z,8.70
2018-12-02T01:27:23.418Z,8.70
2018-12-02T01:28:26.773Z,8.70
2018-12-02T01:29:30.101Z,8.70
2018-12-02T01:30:33.432Z,8.70
2018-12-02T01:31:36.773Z,8.70
2018-12-02T01:32:40.378Z,8.70
2018-12-02T01:33:43.713Z,8.70
2018-12-02T01:34:47.046Z,8.70
2018-12-02T01:35:50.381Z,8.70
2018-12-02T01:36:53.723Z,8.70
2018-12-02T01:37:57.082Z,8.70
2018-12-02T01:39:00.461Z,8.70
2018-12-02T01:40:04.144Z,8.70
2018-12-02T01:41:07.518Z,8.70
2018-12-02T01:42:10.829Z,8.70
2018-12-02T01:43:14.157Z,8.80
2018-12-02T01:44:17.538Z,8.80
2018-12-02T01:45:21.822Z,8.80
2018-12-02T01:46:25.137Z,8.80
2018-12-02T01:47:28.482Z,8.80
2018-12-02T01:48:31.804Z,8.80
2018-12-02T01:49:35.173Z,8.80
2018-12-02T01:50:38.502Z,8.80
2018-12-02T01:51:41.833Z,8.80
2018-12-02T01:52:47.153Z,8.80
2018-12-02T01:53:50.473Z,8.80
2018-12-02T01:54:53.833Z,8.80
2018-12-02T01:55:57.153Z,8.80
2018-12-02T01:57:00.472Z,8.80
2018-12-02T01:58:03.850Z,8.80
2018-12-02T01:59:07.175Z,8.80
2018-12-02T02:00:20.434Z,8.80
2018-12-02T02:01:23.753Z,8.80
2018-12-02T02:02:27.065Z,8.80
2018-12-02T02:03:30.388Z,8.80
2018-12-02T02:04:33.705Z,8.80
2018-12-02T02:05:37.071Z,8.80
2018-12-02T02:06:40.467Z,8.80
2018-12-02T02:07:43.794Z,8.80
2018-12-02T02:08:47.170Z,8.90
2018-12-02T02:09:50.489Z,8.80
2018-12-02T02:10:53.842Z,8.80
2018-12-02T02:11:57.159Z,8.80
2018-12-02T02:13:00.485Z,8.80
2018-12-02T02:14:03.806Z,8.80
2018-12-02T02:15:08.597Z,8.80
2018-12-02T02:16:12.002Z,8.80
2018-12-02T02:17:15.325Z,8.80
2018-12-02T02:18:18.661Z,8.90
2018-12-02T02:19:21.993Z,8.80
2018-12-02T02:20:25.826Z,8.80
2018-12-02T02:21:29.326Z,8.90
2018-12-02T02:22:32.691Z,8.80
2018-12-02T02:23:36.020Z,8.90
2018-12-02T02:24:39.359Z,8.80
2018-12-02T02:25:43.069Z,8.80
2018-12-02T02:26:46.431Z,8.80
2018-12-02T02:27:57.218Z,8.80
2018-12-02T02:29:00.562Z,8.80
2018-12-02T02:30:07.927Z,8.90
2018-12-02T02:31:11.265Z,8.80
2018-12-02T02:32:14.591Z,8.90
2018-12-02T02:33:17.932Z,8.80
2018-12-02T02:34:21.264Z,8.80
2018-12-02T02:35:24.645Z,8.90
2018-12-02T02:36:27.975Z,8.90
2018-12-02T02:37:31.302Z,8.90
2018-12-02T02:38:34.631Z,8.90
2018-12-02T02:39:37.958Z,8.90
2018-12-02T02:40:41.330Z,8.90
2018-12-02T02:41:44.651Z,8.90
2018-12-02T02:42:47.979Z,8.80
2018-12-02T02:43:51.324Z,8.90
2018-12-02T02:44:54.656Z,8.90
2018-12-02T02:45:58.009Z,8.90
2018-12-02T02:47:01.346Z,8.90
2018-12-02T02:48:04.897Z,8.90
2018-12-02T02:49:08.225Z,8.90
2018-12-02T02:50:16.466Z,8.90
2018-12-02T02:51:19.777Z,8.90
2018-12-02T02:52:23.106Z,8.90
2018-12-02T02:53:26.514Z,8.90
2018-12-02T02:54:29.835Z,8.80
2018-12-02T02:55:33.157Z,8.90
2018-12-02T02:56:36.474Z,8.90
2018-12-02T02:57:39.817Z,8.90
2018-12-02T02:58:43.184Z,8.90
2018-12-02T02:59:46.502Z,8.90
2018-12-02T03:00:49.834Z,8.90
2018-12-02T03:01:53.189Z,8.90
2018-12-02T03:02:56.531Z,8.90
2018-12-02T03:03:59.886Z,8.90
2018-12-02T03:05:03.254Z,8.90
2018-12-02T03:06:06.683Z,8.90
2018-12-02T03:07:10.057Z,8.90
2018-12-02T03:08:13.389Z,8.90
2018-12-02T03:09:16.749Z,8.90
2018-12-02T03:10:20.935Z,8.90
2018-12-02T03:11:24.301Z,8.90
2018-12-02T03:12:27.628Z,8.90
2018-12-02T03:13:30.945Z,8.90
2018-12-02T03:14:34.309Z,8.90
2018-12-02T03:15:37.622Z,8.90
2018-12-02T03:16:40.952Z,8.90
2018-12-02T03:17:44.442Z,8.90
2018-12-02T03:18:47.750Z,8.90
2018-12-02T03:19:51.085Z,8.90
2018-12-02T03:20:54.454Z,8.90
2018-12-02T03:21:57.774Z,8.90
2018-12-02T03:23:01.089Z,8.90
2018-12-02T03:24:04.440Z,8.90
2018-12-02T03:25:09.370Z,8.90
2018-12-02T03:26:12.735Z,8.90
2018-12-02T03:27:16.062Z,8.90
2018-12-02T03:28:19.390Z,8.80
2018-12-02T03:29:22.719Z,8.80
2018-12-02T03:30:26.296Z,8.80
2018-12-02T03:31:29.684Z,8.80
2018-12-02T03:32:33.005Z,8.80
2018-12-02T03:33:36.326Z,8.80
2018-12-02T03:34:39.666Z,8.80
2018-12-02T03:35:42.970Z,8.80
2018-12-02T03:36:46.320Z,8.80
2018-12-02T03:37:49.650Z,8.80
2018-12-02T03:38:52.998Z,8.80
2018-12-02T03:39:56.313Z,8.80
2018-12-02T03:40:59.625Z,8.80
2018-12-02T03:42:02.989Z,8.80
2018-12-02T03:43:06.368Z,8.80
2018-12-02T03:44:09.697Z,8.80
2018-12-02T03:45:14.081Z,8.80
2018-12-02T03:46:17.400Z,8.80
2018-12-02T03:47:20.826Z,8.80
2018-12-02T03:48:24.206Z,8.80
2018-12-02T03:49:27.529Z,8.80
2018-12-02T03:50:30.851Z,8.80
2018-12-02T03:51:34.181Z,8.80
2018-12-02T03:52:37.548Z,8.90
2018-12-02T03:53:40.870Z,8.90
2018-12-02T03:54:44.210Z,8.80
2018-12-02T03:55:47.521Z,8.80
2018-12-02T03:56:50.860Z,8.80
2018-12-02T03:57:54.258Z,8.80
2018-12-02T03:58:57.620Z,8.80
2018-12-02T04:00:00.943Z,8.80
2018-12-02T04:01:04.269Z,8.80
2018-12-02T04:02:07.603Z,8.80
2018-12-02T04:03:10.966Z,8.80
2018-12-02T04:04:14.300Z,8.80
2018-12-02T04:05:19.723Z,8.80
2018-12-02T04:06:23.053Z,8.80
2018-12-02T04:07:26.391Z,8.80
2018-12-02T04:08:29.765Z,8.80
2018-12-02T04:09:33.080Z,8.80
2018-12-02T04:10:36.521Z,8.80
2018-12-02T04:11:39.858Z,8.80
2018-12-02T04:12:43.309Z,8.80
2018-12-02T04:13:46.663Z,8.80
2018-12-02T04:14:50.001Z,8.80
2018-12-02T04:15:53.370Z,8.80
2018-12-02T04:16:56.697Z,8.80
2018-12-02T04:18:00.017Z,8.80
2018-12-02T04:19:03.388Z,8.80
2018-12-02T04:20:08.718Z,8.80
2018-12-02T04:21:12.045Z,8.80
2018-12-02T04:22:15.366Z,8.80
2018-12-02T04:23:18.694Z,8.80
2018-12-02T04:24:22.078Z,8.80
2018-12-02T04:25:26.347Z,8.80
2018-12-02T04:26:29.674Z,8.80
2018-12-02T04:27:32.997Z,8.80
2018-12-02T04:28:36.330Z,8.80
2018-12-02T04:29:39.664Z,8.80
2018-12-02T04:30:43.036Z,8.80
2018-12-02T04:31:46.360Z,8.80
2018-12-02T04:32:50.608Z,8.80
2018-12-02T04:33:53.922Z,8.80
2018-12-02T04:34:57.238Z,8.80
2018-12-02T04:36:00.592Z,8.80
2018-12-02T04:37:03.930Z,8.70
2018-12-02T04:38:07.253Z,8.70
2018-12-02T04:39:10.565Z,8.70
2018-12-02T04:40:14.604Z,8.80
2018-12-02T04:41:17.939Z,8.70
2018-12-02T04:42:21.288Z,8.70
2018-12-02T04:43:24.641Z,8.80
2018-12-02T04:44:27.994Z,8.70
2018-12-02T04:45:31.372Z,8.70
2018-12-02T04:46:34.695Z,8.80
2018-12-02T04:47:38.090Z,8.70
2018-12-02T04:48:41.459Z,8.70
2018-12-02T04:49:44.797Z,8.70
2018-12-02T04:50:48.154Z,8.70
2018-12-02T04:51:51.493Z,8.70
2018-12-02T04:52:54.835Z,8.70
2018-12-02T04:53:58.150Z,8.70
2018-12-02T04:55:01.477Z,8.70
2018-12-02T04:56:04.867Z,8.70
2018-12-02T04:57:08.189Z,8.70
2018-12-02T04:58:11.518Z,8.70
2018-12-02T04:59:14.857Z,8.70
2018-12-02T05:00:19.143Z,8.70
2018-12-02T05:01:22.522Z,8.70
2018-12-02T05:02:25.834Z,8.70
2018-12-02T05:03:29.209Z,8.70
2018-12-02T05:04:32.557Z,8.70
2018-12-02T05:05:35.878Z,8.70
2018-12-02T05:06:39.215Z,8.70
2018-12-02T05:07:42.925Z,8.70
2018-12-02T05:08:46.301Z,8.70
2018-12-02T05:09:49.621Z,8.70
2018-12-02T05:10:53.443Z,8.70
2018-12-02T05:11:56.774Z,8.70
2018-12-02T05:13:00.098Z,8.70
2018-12-02T05:14:03.846Z,8.70
2018-12-02T05:15:12.258Z,8.70
2018-12-02T05:16:15.595Z,8.70
2018-12-02T05:17:18.905Z,8.70
2018-12-02T05:18:22.221Z,8.70
2018-12-02T05:19:25.589Z,8.70
2018-12-02T05:20:28.917Z,8.70
2018-12-02T05:21:32.229Z,8.70
2018-12-02T05:22:35.581Z,8.70
2018-12-02T05:23:38.925Z,8.70
2018-12-02T05:24:42.302Z,8.70
2018-12-02T05:25:45.633Z,8.70
2018-12-02T05:26:48.966Z,8.70
2018-12-02T05:27:52.287Z,8.70
2018-12-02T05:28:55.611Z,8.70
2018-12-02T05:29:58.981Z,8.70
2018-12-02T05:31:02.347Z,8.70
2018-12-02T05:32:06.199Z,8.70
2018-12-02T05:33:09.530Z,8.60
2018-12-02T05:34:12.845Z,8.60
2018-12-02T05:35:16.225Z,8.60
2018-12-02T05:36:19.562Z,8.70
2018-12-02T05:37:22.886Z,8.70
2018-12-02T05:38:26.229Z,8.60
2018-12-02T05:39:29.547Z,8.60
2018-12-02T05:40:32.889Z,8.60
2018-12-02T05:41:41.509Z,8.60
2018-12-02T05:42:44.909Z,8.60
2018-12-02T05:43:48.269Z,8.60
2018-12-02T05:44:51.598Z,8.60
2018-12-02T05:45:54.919Z,8.60
2018-12-02T05:46:58.257Z,8.60
2018-12-02T05:48:01.568Z,8.60
2018-12-02T05:49:05.399Z,8.60
2018-12-02T05:50:16.829Z,8.60
2018-12-02T05:51:20.153Z,8.60
2018-12-02T05:52:23.479Z,8.60
2018-12-02T05:53:26.833Z,8.60
2018-12-02T05:54:30.214Z,8.50
2018-12-02T05:55:36.201Z,8.50
2018-12-02T05:56:39.530Z,8.50
2018-12-02T05:57:43.093Z,8.50
2018-12-02T05:58:46.432Z,8.50
2018-12-02T05:59:49.817Z,8.50
2018-12-02T06:00:53.161Z,8.50
2018-12-02T06:01:56.482Z,8.50
2018-12-02T06:02:59.838Z,8.50
2018-12-02T06:04:03.155Z,8.50
2018-12-02T06:05:07.560Z,8.50
2018-12-02T06:06:10.894Z,8.50
2018-12-02T06:07:14.223Z,8.50
2018-12-02T06:08:17.595Z,8.50
2018-12-02T06:09:20.913Z,8.50
2018-12-02T06:10:24.257Z,8.50
2018-12-02T06:11:27.585Z,8.50
2018-12-02T06:12:30.917Z,8.50
2018-12-02T06:13:34.309Z,8.50
2018-12-02T06:14:37.637Z,8.50
2018-12-02T06:15:40.967Z,8.50
2018-12-02T06:16:44.313Z,8.50
2018-12-02T06:17:47.844Z,8.50
2018-12-02T06:18:51.320Z,8.40
2018-12-02T06:19:54.741Z,8.50
2018-12-02T06:20:58.058Z,8.40
2018-12-02T06:22:01.378Z,8.40
2018-12-02T06:23:05.175Z,8.40
2018-12-02T06:24:08.558Z,8.40
2018-12-02T06:25:11.946Z,8.40
2018-12-02T06:26:15.275Z,8.40
2018-12-02T06:27:18.618Z,8.40
2018-12-02T06:28:21.933Z,8.40
2018-12-02T06:29:25.310Z,8.40
2018-12-02T06:30:28.953Z,8.40
2018-12-02T06:31:32.269Z,8.40
2018-12-02T06:32:35.593Z,8.40
2018-12-02T06:33:38.920Z,8.40
2018-12-02T06:34:42.306Z,8.40
2018-12-02T06:35:45.641Z,8.30
2018-12-02T06:36:48.957Z,8.30
2018-12-02T06:37:53.589Z,8.30
2018-12-02T06:38:56.922Z,8.30
2018-12-02T06:40:00.285Z,8.30
2018-12-02T06:41:03.618Z,8.20
2018-12-02T06:42:06.942Z,8.30
2018-12-02T06:43:10.265Z,8.20
2018-12-02T06:44:13.590Z,8.20
2018-12-02T06:45:16.961Z,8.30
2018-12-02T06:46:20.294Z,8.20
2018-12-02T06:47:23.622Z,8.20
2018-12-02T06:48:26.933Z,8.20
2018-12-02T06:49:30.258Z,8.20
2018-12-02T06:50:33.677Z,8.20
2018-12-02T06:51:37.014Z,8.20
2018-12-02T06:52:40.352Z,8.20
2018-12-02T06:53:43.669Z,8.20
2018-12-02T06:54:47.010Z,8.20
2018-12-02T06:55:54.170Z,8.20
2018-12-02T06:56:57.525Z,8.20
2018-12-02T06:58:11.241Z,8.20
2018-12-02T06:59:18.818Z,8.20
2018-12-02T07:00:37.058Z,8.20
2018-12-02T07:01:46.953Z,8.20
2018-12-02T07:03:00.446Z,8.20
2018-12-02T07:04:38.514Z,8.20
2018-12-02T07:05:41.856Z,8.10
2018-12-02T07:06:45.237Z,8.10
2018-12-02T07:07:48.554Z,8.10
2018-12-02T07:08:51.873Z,8.20
2018-12-02T07:09:55.194Z,8.20
2018-12-02T07:10:58.509Z,8.10
2018-12-02T07:12:01.860Z,8.10
2018-12-02T07:13:05.278Z,8.10
2018-12-02T07:14:08.592Z,8.10
2018-12-02T07:15:11.916Z,8.10
2018-12-02T07:16:15.282Z,8.10
2018-12-02T07:17:18.598Z,8.10
2018-12-02T07:18:23.465Z,8.10
2018-12-02T07:19:30.017Z,8.10
2018-12-02T07:20:33.339Z,8.20
2018-12-02T07:21:37.550Z,8.10
2018-12-02T07:22:40.866Z,8.10
2018-12-02T07:23:44.185Z,8.10
2018-12-02T07:24:47.538Z,8.20
2018-12-02T07:25:50.890Z,8.20
2018-12-02T07:26:54.257Z,8.10
2018-12-02T07:27:57.574Z,8.10
2018-12-02T07:29:00.887Z,8.10
2018-12-02T07:30:05.159Z,8.10
2018-12-02T07:31:08.509Z,8.10
2018-12-02T07:32:11.873Z,8.10
2018-12-02T07:33:15.196Z,8.20
2018-12-02T07:34:18.558Z,8.10
2018-12-02T07:35:21.865Z,8.20
2018-12-02T07:36:25.179Z,8.20
2018-12-02T07:37:28.498Z,8.10
2018-12-02T07:38:39.675Z,8.10
2018-12-02T07:40:18.744Z,8.10
2018-12-02T07:41:22.061Z,8.10
2018-12-02T07:42:25.382Z,8.20
2018-12-02T07:43:28.697Z,8.20
2018-12-02T07:44:32.014Z,8.10
2018-12-02T07:45:35.378Z,8.20
2018-12-02T07:46:38.713Z,8.20
2018-12-02T07:47:42.034Z,8.20
2018-12-02T07:48:45.377Z,8.20
2018-12-02T07:49:48.698Z,8.20
2018-12-02T07:50:52.087Z,8.20
2018-12-02T07:51:55.413Z,8.20
2018-12-02T07:52:58.730Z,8.20
2018-12-02T07:54:02.061Z,8.20
2018-12-02T07:55:06.340Z,8.20
2018-12-02T07:56:09.764Z,8.20
2018-12-02T07:57:13.078Z,8.20
2018-12-02T07:58:16.669Z,8.20
2018-12-02T07:59:20.029Z,8.30
2018-12-02T08:00:23.373Z,8.30
2018-12-02T08:01:26.741Z,8.30
2018-12-02T08:02:30.070Z,8.30
2018-12-02T08:03:33.405Z,8.30
2018-12-02T08:04:36.737Z,8.30
2018-12-02T08:05:40.101Z,8.30
2018-12-02T08:06:43.467Z,8.30
2018-12-02T08:07:48.191Z,8.40
2018-12-02T08:08:51.594Z,8.40
2018-12-02T08:09:54.935Z,8.40
2018-12-02T08:10:59.548Z,8.40
2018-12-02T08:12:01.674Z,8.40
2018-12-02T08:13:05.732Z,8.40
2018-12-02T08:14:09.057Z,8.40
2018-12-02T08:15:16.581Z,8.40
2018-12-02T08:16:19.947Z,8.40
2018-12-02T08:17:23.270Z,8.40
2018-12-02T08:18:26.686Z,8.40
2018-12-02T08:19:30.020Z,8.40
2018-12-02T08:20:33.342Z,8.40
2018-12-02T08:21:36.715Z,8.40
2018-12-02T08:23:49.745Z,8.40
2018-12-02T08:24:53.087Z,8.50
2018-12-02T08:25:56.406Z,8.50
2018-12-02T08:26:59.814Z,8.50
2018-12-02T08:28:03.153Z,8.50
2018-12-02T08:29:06.475Z,8.50
2018-12-02T08:30:12.496Z,8.50
2018-12-02T08:31:15.814Z,8.50
2018-12-02T08:32:19.165Z,8.50
2018-12-02T08:33:22.513Z,8.50
2018-12-02T08:34:25.901Z,8.50
2018-12-02T08:35:29.366Z,8.50
2018-12-02T08:36:32.719Z,8.50
2018-12-02T08:37:36.058Z,8.50
2018-12-02T08:38:39.410Z,8.50
2018-12-02T08:39:42.777Z,8.50
2018-12-02T08:40:46.096Z,8.50
2018-12-02T08:41:49.462Z,8.50
2018-12-02T08:42:52.782Z,8.60
2018-12-02T08:43:56.159Z,8.50
2018-12-02T08:44:59.469Z,8.50
2018-12-02T08:46:02.801Z,8.60
2018-12-02T08:47:06.378Z,8.60
2018-12-02T08:48:09.705Z,8.60
2018-12-02T08:49:13.058Z,8.60
2018-12-02T08:50:18.177Z,8.60
2018-12-02T08:51:21.506Z,8.60
2018-12-02T08:52:24.964Z,8.60
2018-12-02T08:53:28.306Z,8.60
2018-12-02T08:54:31.683Z,8.60
2018-12-02T08:55:35.018Z,8.70
2018-12-02T08:56:38.373Z,8.70
2018-12-02T08:57:41.729Z,8.60
2018-12-02T08:58:45.102Z,8.60
2018-12-02T08:59:48.443Z,8.70
2018-12-02T09:00:51.752Z,8.70
2018-12-02T09:01:55.127Z,8.70
2018-12-02T09:02:59.803Z,8.70
2018-12-02T09:04:03.139Z,8.80
2018-12-02T09:05:08.546Z,8.70
2018-12-02T09:06:11.926Z,8.70
2018-12-02T09:07:15.239Z,8.80
2018-12-02T09:08:18.597Z,8.80
2018-12-02T09:09:21.920Z,8.80
2018-12-02T09:10:27.510Z,8.80
2018-12-02T09:11:30.863Z,8.80
2018-12-02T09:12:34.220Z,8.80
2018-12-02T09:13:37.545Z,8.80
2018-12-02T09:14:40.865Z,8.80
2018-12-02T09:15:44.195Z,8.80
2018-12-02T09:16:47.577Z,8.80
2018-12-02T09:17:50.921Z,8.80
2018-12-02T09:18:54.273Z,8.80
2018-12-02T09:19:57.591Z,8.80
2018-12-02T09:21:00.902Z,8.80
2018-12-02T09:22:04.261Z,8.80
2018-12-02T09:23:09.570Z,8.80
2018-12-02T09:24:12.962Z,8.80
2018-12-02T09:25:16.305Z,8.90
2018-12-02T09:26:19.766Z,8.90
2018-12-02T09:27:23.081Z,8.90
2018-12-02T09:28:26.441Z,8.90
2018-12-02T09:29:29.757Z,8.90
2018-12-02T09:30:34.360Z,8.90
2018-12-02T09:31:37.682Z,8.90
2018-12-02T09:32:41.030Z,8.90
2018-12-02T09:33:44.346Z,8.90
2018-12-02T09:34:47.675Z,8.90
2018-12-02T09:35:51.033Z,8.90
2018-12-02T09:36:57.980Z,9.00
2018-12-02T09:37:57.745Z,9.00
2018-12-02T09:39:01.112Z,9.00
2018-12-02T09:40:06.930Z,9.00
2018-12-02T09:41:10.283Z,9.00
2018-12-02T09:42:13.606Z,9.10
2018-12-02T09:43:17.140Z,9.10
2018-12-02T09:44:20.458Z,9.10
2018-12-02T09:45:24.791Z,9.10
2018-12-02T09:46:28.166Z,9.10
2018-12-02T09:47:31.490Z,9.00
2018-12-02T09:48:34.802Z,9.00
2018-12-02T09:49:38.177Z,9.10
2018-12-02T09:50:41.514Z,9.10
2018-12-02T09:51:44.829Z,9.10
2018-12-02T09:52:48.153Z,9.10
2018-12-02T09:53:51.465Z,9.10
2018-12-02T09:54:54.817Z,9.10
2018-12-02T09:55:58.146Z,9.10
2018-12-02T09:57:01.520Z,9.20
2018-12-02T09:58:05.229Z,9.20
2018-12-02T09:59:08.533Z,9.20
2018-12-02T10:00:13.726Z,9.20
2018-12-02T10:01:17.074Z,9.20
2018-12-02T10:02:20.422Z,9.20
2018-12-02T10:03:23.774Z,9.20
2018-12-02T10:04:27.104Z,9.20
2018-12-02T10:05:30.442Z,9.20
2018-12-02T10:06:33.775Z,9.10
2018-12-02T10:07:37.113Z,9.20
2018-12-02T10:08:40.426Z,9.20
2018-12-02T10:09:43.754Z,9.20
2018-12-02T10:10:47.117Z,9.20
2018-12-02T10:11:50.430Z,9.20
2018-12-02T10:13:03.474Z,9.20
2018-12-02T10:14:06.821Z,9.20
2018-12-02T10:15:12.114Z,9.20
2018-12-02T10:16:16.635Z,9.20
2018-12-02T10:17:18.885Z,9.20
2018-12-02T10:18:22.205Z,9.20
2018-12-02T10:19:25.622Z,9.20
2018-12-02T10:20:28.952Z,9.20
2018-12-02T10:21:32.318Z,9.20
2018-12-02T10:22:35.632Z,9.30
2018-12-02T10:23:39.000Z,9.20
2018-12-02T10:24:42.313Z,9.30
2018-12-02T10:25:45.645Z,9.30
2018-12-02T10:26:48.993Z,9.20
2018-12-02T10:27:52.322Z,9.20
2018-12-02T10:28:55.642Z,9.20
2018-12-02T10:29:58.949Z,9.30
2018-12-02T10:31:02.270Z,9.20
2018-12-02T10:32:06.102Z,9.20
2018-12-02T10:33:09.563Z,9.20
2018-12-02T10:34:12.884Z,9.30
2018-12-02T10:35:16.210Z,9.30
2018-12-02T10:36:19.529Z,9.30
2018-12-02T10:37:22.886Z,9.30
2018-12-02T10:38:26.198Z,9.30
2018-12-02T10:39:29.520Z,9.30
2018-12-02T10:40:32.840Z,9.30
2018-12-02T10:41:36.229Z,9.30
2018-12-02T10:42:39.578Z,9.30
2018-12-02T10:43:42.890Z,9.30
2018-12-02T10:44:46.193Z,9.30
2018-12-02T10:45:49.610Z,9.30
2018-12-02T10:46:52.970Z,9.30
2018-12-02T10:47:57.569Z,9.30
2018-12-02T10:49:00.922Z,9.30
2018-12-02T10:50:05.370Z,9.30
2018-12-02T10:51:08.718Z,9.30
2018-12-02T10:52:12.078Z,9.30
2018-12-02T10:53:17.969Z,9.30
2018-12-02T10:54:21.310Z,9.30
2018-12-02T10:55:31.494Z,9.30
2018-12-02T10:56:34.837Z,9.30
2018-12-02T10:57:38.147Z,9.40
2018-12-02T10:58:41.473Z,9.40
2018-12-02T10:59:44.818Z,9.40
2018-12-02T11:00:53.760Z,9.40
2018-12-02T11:02:02.465Z,9.40
2018-12-02T11:03:05.835Z,9.40
2018-12-02T11:04:09.207Z,9.40
2018-12-02T11:05:12.533Z,9.50
2018-12-02T11:06:15.919Z,9.50
2018-12-02T11:07:19.238Z,9.50
2018-12-02T11:08:22.573Z,9.50
2018-12-02T11:09:25.936Z,9.50
2018-12-02T11:10:29.253Z,9.50
2018-12-02T11:11:32.589Z,9.50
2018-12-02T11:12:35.968Z,9.60
2018-12-02T11:13:39.298Z,9.60
2018-12-02T11:14:42.631Z,9.60
2018-12-02T11:15:46.031Z,9.50
2018-12-02T11:16:49.402Z,9.60
2018-12-02T11:17:52.734Z,9.60
2018-12-02T11:18:56.049Z,9.60
2018-12-02T11:19:59.373Z,9.60
2018-12-02T11:21:02.697Z,9.60
2018-12-02T11:22:06.066Z,9.60
2018-12-02T11:23:09.418Z,9.60
2018-12-02T11:24:12.750Z,9.60
2018-12-02T11:25:16.081Z,9.60
2018-12-02T11:26:19.427Z,9.60
2018-12-02T11:27:22.802Z,9.70
2018-12-02T11:28:26.142Z,9.60
2018-12-02T11:29:29.762Z,9.70
2018-12-02T11:30:33.433Z,9.70
2018-12-02T11:31:36.761Z,9.60
2018-12-02T11:32:40.256Z,9.60
2018-12-02T11:33:43.598Z,9.70
2018-12-02T11:34:46.931Z,9.70
2018-12-02T11:35:50.266Z,9.70
2018-12-02T11:36:53.592Z,9.60
2018-12-02T11:37:56.952Z,9.70
2018-12-02T11:39:00.653Z,9.60
2018-12-02T11:40:04.762Z,9.60
2018-12-02T11:41:08.163Z,9.60
2018-12-02T11:42:11.582Z,9.60
2018-12-02T11:43:14.902Z,9.70
2018-12-02T11:44:18.277Z,9.70
2018-12-02T11:45:21.639Z,9.70
2018-12-02T11:46:25.004Z,9.70
2018-12-02T11:47:28.373Z,9.70
2018-12-02T11:48:31.767Z,9.70
2018-12-02T11:49:35.155Z,9.70
2018-12-02T11:50:38.742Z,9.70
2018-12-02T11:51:42.050Z,9.70
2018-12-02T11:52:45.425Z,9.70
2018-12-02T11:53:48.800Z,9.70
2018-12-02T11:54:52.117Z,9.70
2018-12-02T11:55:55.444Z,9.70
2018-12-02T11:56:58.774Z,9.70
2018-12-02T11:58:02.130Z,9.70
2018-12-02T11:59:05.477Z,9.70
2018-12-02T12:00:23.354Z,9.60
2018-12-02T12:01:26.674Z,9.60
2018-12-02T12:02:30.037Z,9.60
2018-12-02T12:03:33.383Z,9.60
2018-12-02T12:04:36.749Z,9.60
2018-12-02T12:05:40.115Z,9.60
2018-12-02T12:06:43.438Z,9.60
2018-12-02T12:07:47.684Z,9.60
2018-12-02T12:08:50.989Z,9.60
2018-12-02T12:09:54.345Z,9.70
2018-12-02T12:10:57.668Z,9.60
2018-12-02T12:12:00.981Z,9.60
2018-12-02T12:13:04.357Z,9.60
2018-12-02T12:14:07.681Z,9.60
2018-12-02T12:15:15.164Z,9.60
2018-12-02T12:16:18.504Z,9.60
2018-12-02T12:17:21.845Z,9.70
2018-12-02T12:18:25.250Z,9.70
2018-12-02T12:19:28.598Z,9.70
2018-12-02T12:20:40.929Z,9.70
2018-12-02T12:21:44.249Z,9.70
2018-12-02T12:22:47.587Z,9.70
2018-12-02T12:23:50.941Z,9.70
2018-12-02T12:24:54.261Z,9.70
2018-12-02T12:25:57.582Z,9.70
2018-12-02T12:27:00.933Z,9.70
2018-12-02T12:28:04.280Z,9.70
2018-12-02T12:29:07.599Z,9.70
2018-12-02T12:30:13.109Z,9.70
2018-12-02T12:31:16.466Z,9.70
2018-12-02T12:32:19.786Z,9.70
2018-12-02T12:33:23.156Z,9.70
2018-12-02T12:34:26.497Z,9.70
2018-12-02T12:35:29.800Z,9.70
2018-12-02T12:36:33.122Z,9.70
2018-12-02T12:37:36.539Z,9.70
2018-12-02T12:38:39.877Z,9.70
2018-12-02T12:39:43.198Z,9.60
2018-12-02T12:40:48.147Z,9.60
2018-12-02T12:41:51.529Z,9.70
2018-12-02T12:43:15.140Z,9.70
2018-12-02T12:44:18.452Z,9.70
2018-12-02T12:45:21.768Z,9.70
2018-12-02T12:46:25.116Z,9.70
2018-12-02T12:47:28.445Z,9.70
2018-12-02T12:48:31.811Z,9.70
2018-12-02T12:49:35.126Z,9.70
2018-12-02T12:50:38.450Z,9.70
2018-12-02T12:51:41.807Z,9.70
2018-12-02T12:52:45.157Z,9.70
2018-12-02T12:53:48.486Z,9.70
2018-12-02T12:54:51.815Z,9.70
2018-12-02T12:55:55.162Z,9.70
2018-12-02T12:56:59.338Z,9.70
2018-12-02T12:58:02.672Z,9.70
2018-12-02T12:59:06.083Z,9.70
2018-12-02T13:00:18.364Z,9.70
2018-12-02T13:01:21.733Z,9.70
2018-12-02T13:02:25.097Z,9.70
2018-12-02T13:03:28.431Z,9.70
2018-12-02T13:04:31.765Z,9.70
2018-12-02T13:05:35.090Z,9.70
2018-12-02T13:06:38.446Z,9.70
2018-12-02T13:07:41.801Z,9.70
2018-12-02T13:08:45.120Z,9.70
2018-12-02T13:09:48.425Z,9.70
2018-12-02T13:10:51.789Z,9.70
2018-12-02T13:11:55.142Z,9.70
2018-12-02T13:12:58.486Z,9.70
2018-12-02T13:14:01.799Z,9.70
2018-12-02T13:15:07.741Z,9.70
2018-12-02T13:16:11.081Z,9.70
2018-12-02T13:17:14.398Z,9.70
2018-12-02T13:18:17.705Z,9.80
2018-12-02T13:19:21.038Z,9.70
2018-12-02T13:20:25.673Z,9.70
2018-12-02T13:21:29.005Z,9.70
2018-12-02T13:22:32.364Z,9.70
2018-12-02T13:23:35.689Z,9.80
2018-12-02T13:24:39.957Z,9.70
2018-12-02T13:25:42.359Z,9.80
2018-12-02T13:26:45.677Z,9.80
2018-12-02T13:27:49.035Z,9.80
2018-12-02T13:28:52.345Z,9.80
2018-12-02T13:29:55.665Z,9.90
2018-12-02T13:30:58.985Z,9.90
2018-12-02T13:32:02.337Z,9.90
2018-12-02T13:33:06.775Z,9.90
2018-12-02T13:34:10.088Z,9.90
2018-12-02T13:35:13.570Z,9.90
2018-12-02T13:36:16.911Z,9.90
2018-12-02T13:37:20.258Z,9.90
2018-12-02T13:38:23.599Z,9.90
2018-12-02T13:39:26.914Z,10.00
2018-12-02T13:40:30.240Z,9.90
2018-12-02T13:41:33.555Z,10.00
2018-12-02T13:42:36.878Z,10.00
2018-12-02T13:43:40.230Z,10.00
2018-12-02T13:44:43.545Z,10.00
2018-12-02T13:45:47.410Z,10.10
2018-12-02T13:46:50.758Z,10.10
2018-12-02T13:47:54.081Z,10.10
2018-12-02T13:48:57.401Z,10.20
2018-12-02T13:50:00.798Z,10.20
2018-12-02T13:51:04.150Z,10.20
2018-12-02T13:52:07.496Z,10.20
2018-12-02T13:53:10.861Z,10.20
2018-12-02T13:54:19.637Z,10.20
2018-12-02T13:55:31.355Z,10.20
2018-12-02T13:56:34.703Z,10.30
2018-12-02T13:57:38.076Z,10.20
2018-12-02T13:58:41.452Z,10.20
2018-12-02T13:59:44.821Z,10.20
2018-12-02T14:00:48.141Z,10.20
2018-12-02T14:01:51.465Z,10.20
2018-12-02T14:02:57.095Z,10.20
2018-12-02T14:04:00.449Z,10.20
2018-12-02T14:05:03.810Z,10.30
2018-12-02T14:06:07.162Z,10.20
2018-12-02T14:07:10.510Z,10.30
2018-12-02T14:08:13.867Z,10.30
2018-12-02T14:09:17.190Z,10.30